Time;durP1;ratioP1;P1;durP2;ratioP2;P2;SDS_P1;SDS_P2;PMS_P1;PMS_P2;Temp;Humidity;BMP_temperature;BMP_pressure;BME280_temperature;BME280_humidity;BME280_pressure;Samples;Min_cycle;Max_cycle;Signal;HPM_P1;HPM_P2
2023/06/05 00:00:43;;;;;;;4.68;2.97;;;;;;;;;;5054515;28;20036;-68
2023/06/05 00:03:09;;;;;;;7.68;2.80;;;;;;;;;;5054925;28;20029;-68
2023/06/05 00:05:36;;;;;;;3.03;2.72;;;;;;;;;;5054519;28;20396;-69
2023/06/05 00:08:02;;;;;;;4.80;2.92;;;;;;;;;;5054418;28;20021;-68
2023/06/05 00:10:28;;;;;;;4.82;2.95;;;;;;;;;;5054641;28;20025;-68
2023/06/05 00:12:55;;;;;;;7.10;2.80;;;;;;;;;;5054352;28;20255;-68
2023/06/05 00:15:21;;;;;;;9.00;2.80;;;;;;;;;;5053783;28;20035;-68
2023/06/05 00:17:47;;;;;;;7.20;2.75;;;;;;;;;;5054261;28;20025;-68
2023/06/05 00:20:14;;;;;;;9.60;3.05;;;;;;;;;;5054293;28;20017;-68
2023/06/05 00:22:44;;;;;;;5.20;2.90;;;;;;;;;;5054053;28;20025;-69
2023/06/05 00:25:11;;;;;;;6.60;2.67;;;;;;;;;;5054224;28;20055;-69
2023/06/05 00:27:37;;;;;;;6.95;2.70;;;;;;;;;;5053842;28;20025;-69
2023/06/05 00:30:04;;;;;;;3.92;2.63;;;;;;;;;;5054253;28;20439;-69
2023/06/05 00:32:30;;;;;;;5.13;2.55;;;;;;;;;;5053977;28;20025;-68
2023/06/05 00:34:56;;;;;;;5.68;2.70;;;;;;;;;;5053797;28;20032;-68
2023/06/05 00:37:22;;;;;;;3.83;2.67;;;;;;;;;;5053975;28;20033;-68
2023/06/05 00:39:49;;;;;;;5.10;2.90;;;;;;;;;;5053936;28;20037;-68
2023/06/05 00:42:15;;;;;;;2.50;2.00;;;;;;;;;;5053926;28;20102;-69
2023/06/05 00:44:42;;;;;;;5.50;2.40;;;;;;;;;;5053832;28;20515;-68
2023/06/05 00:47:08;;;;;;;5.18;2.70;;;;;;;;;;5053964;28;20013;-68
2023/06/05 00:49:34;;;;;;;4.70;2.83;;;;;;;;;;5053698;28;20078;-68
2023/06/05 00:52:00;;;;;;;4.95;3.05;;;;;;;;;;5053709;28;20504;-68
2023/06/05 00:54:27;;;;;;;4.22;2.70;;;;;;;;;;5053522;28;20043;-68
2023/06/05 00:56:54;;;;;;;6.53;2.78;;;;;;;;;;5053291;28;20539;-68
2023/06/05 00:59:21;;;;;;;6.35;3.13;;;;;;;;;;5053804;28;20024;-68
2023/06/05 01:01:47;;;;;;;4.50;3.08;;;;;;;;;;5053362;28;20025;-69
2023/06/05 01:04:14;;;;;;;5.53;3.05;;;;;;;;;;5053280;28;20432;-68
2023/06/05 01:06:41;;;;;;;3.72;2.90;;;;;;;;;;5053769;28;20035;-69
2023/06/05 01:09:10;;;;;;;5.53;3.15;;;;;;;;;;5053806;28;20033;-68
2023/06/05 01:11:39;;;;;;;4.68;3.00;;;;;;;;;;5053001;28;20020;-68
2023/06/05 01:14:06;;;;;;;11.73;3.60;;;;;;;;;;5053199;28;20036;-68
2023/06/05 01:16:34;;;;;;;7.57;3.58;;;;;;;;;;5053252;28;20025;-68
2023/06/05 01:19:02;;;;;;;4.53;3.17;;;;;;;;;;5053117;28;20021;-69
2023/06/05 01:21:32;;;;;;;9.70;3.55;;;;;;;;;;5053356;28;20031;-68
2023/06/05 01:23:59;;;;;;;7.72;3.38;;;;;;;;;;5052724;28;20053;-68
2023/06/05 01:26:31;;;;;;;4.38;3.22;;;;;;;;;;5052814;28;20504;-68
2023/06/05 01:28:58;;;;;;;4.53;2.92;;;;;;;;;;5052270;28;20029;-69
2023/06/05 01:31:26;;;;;;;4.05;2.95;;;;;;;;;;5052998;28;20033;-69
2023/06/05 01:34:03;;;;;;;6.72;3.15;;;;;;;;;;5052770;28;20404;-69
2023/06/05 01:36:31;;;;;;;6.53;3.25;;;;;;;;;;5052698;28;20016;-68
2023/06/05 01:38:57;;;;;;;6.07;3.50;;;;;;;;;;5052714;28;20013;-69
2023/06/05 01:41:25;;;;;;;6.55;3.00;;;;;;;;;;5052743;28;20070;-68
2023/06/05 01:43:52;;;;;;;4.28;3.08;;;;;;;;;;5052927;28;20025;-69
2023/06/05 01:46:20;;;;;;;4.90;3.00;;;;;;;;;;5052716;28;20021;-69
2023/06/05 01:48:46;;;;;;;7.97;3.00;;;;;;;;;;5052603;28;20021;-68
2023/06/05 01:51:13;;;;;;;4.00;3.03;;;;;;;;;;5052687;28;20037;-68
2023/06/05 01:53:39;;;;;;;12.18;3.30;;;;;;;;;;5051054;28;20036;-68
2023/06/05 01:56:08;;;;;;;6.85;3.17;;;;;;;;;;5052436;28;20029;-69
2023/06/05 01:58:35;;;;;;;6.85;2.95;;;;;;;;;;5052385;28;20036;-69
2023/06/05 02:01:02;;;;;;;5.03;2.85;;;;;;;;;;5052296;28;20481;-68
2023/06/05 02:03:29;;;;;;;6.40;2.85;;;;;;;;;;5052297;28;20047;-69
2023/06/05 02:05:55;;;;;;;6.75;2.90;;;;;;;;;;5052400;28;20027;-68
2023/06/05 02:08:22;;;;;;;4.10;2.50;;;;;;;;;;5052244;28;20021;-68
2023/06/05 02:10:52;;;;;;;5.85;2.80;;;;;;;;;;5052060;28;20405;-68
2023/06/05 02:13:19;;;;;;;7.00;3.08;;;;;;;;;;5052149;28;20021;-68
2023/06/05 02:15:54;;;;;;;4.70;3.00;;;;;;;;;;5052208;28;20040;-68
2023/06/05 02:18:24;;;;;;;4.60;3.15;;;;;;;;;;5052153;28;20017;-69
2023/06/05 02:20:53;;;;;;;12.73;3.30;;;;;;;;;;5052256;28;20025;-69
2023/06/05 02:23:20;;;;;;;5.10;2.88;;;;;;;;;;5051720;28;20420;-68
2023/06/05 02:25:46;;;;;;;4.88;3.13;;;;;;;;;;5052051;28;20021;-68
2023/06/05 02:28:13;;;;;;;9.52;3.10;;;;;;;;;;5052044;28;20025;-69
2023/06/05 02:30:44;;;;;;;3.97;3.22;;;;;;;;;;5052371;28;20021;-68
2023/06/05 02:33:11;;;;;;;6.75;3.65;;;;;;;;;;5051836;28;20055;-68
2023/06/05 02:35:40;;;;;;;3.97;3.30;;;;;;;;;;5051805;28;20028;-68
2023/06/05 02:38:06;;;;;;;5.63;3.30;;;;;;;;;;5052080;28;20039;-68
2023/06/05 02:40:32;;;;;;;7.22;3.50;;;;;;;;;;5058616;28;20047;-68
2023/06/05 02:43:00;;;;;;;4.82;3.00;;;;;;;;;;5058653;28;20025;-69
2023/06/05 02:45:26;;;;;;;7.57;3.60;;;;;;;;;;5058378;28;20117;-68
2023/06/05 02:47:52;;;;;;;5.15;3.10;;;;;;;;;;5058515;28;20027;-68
2023/06/05 02:50:18;;;;;;;6.47;2.90;;;;;;;;;;5058767;28;20039;-68
2023/06/05 02:52:45;;;;;;;7.18;2.97;;;;;;;;;;5058306;28;20029;-69
2023/06/05 02:55:11;;;;;;;3.95;3.10;;;;;;;;;;5058359;28;20043;-68
2023/06/05 02:57:41;;;;;;;3.92;2.90;;;;;;;;;;5058181;28;20493;-68
2023/06/05 03:00:08;;;;;;;6.43;2.95;;;;;;;;;;5058377;28;20408;-69
2023/06/05 03:02:36;;;;;;;5.63;3.30;;;;;;;;;;5058542;28;20482;-68
2023/06/05 03:05:03;;;;;;;9.10;3.60;;;;;;;;;;5058280;28;20037;-69
2023/06/05 03:07:30;;;;;;;5.35;3.38;;;;;;;;;;5058075;28;20404;-69
2023/06/05 03:09:56;;;;;;;6.10;2.97;;;;;;;;;;5058316;28;20031;-68
2023/06/05 03:12:22;;;;;;;6.88;3.05;;;;;;;;;;5058509;28;20033;-69
2023/06/05 03:14:49;;;;;;;4.75;3.08;;;;;;;;;;5058525;28;20078;-69
2023/06/05 03:17:15;;;;;;;6.97;3.20;;;;;;;;;;5058643;28;20029;-68
2023/06/05 03:19:41;;;;;;;5.97;3.13;;;;;;;;;;5058270;28;20482;-68
2023/06/05 03:22:08;;;;;;;3.80;2.90;;;;;;;;;;5057948;28;20021;-68
2023/06/05 03:24:37;;;;;;;7.13;3.10;;;;;;;;;;5058062;28;20631;-68
2023/06/05 03:27:07;;;;;;;10.55;3.33;;;;;;;;;;5058512;28;20031;-68
2023/06/05 03:29:33;;;;;;;7.80;3.65;;;;;;;;;;5058331;28;20017;-68
2023/06/05 03:31:59;;;;;;;3.80;3.17;;;;;;;;;;5058538;28;20055;-68
2023/06/05 03:34:26;;;;;;;8.35;3.22;;;;;;;;;;5057653;28;20431;-68
2023/06/05 03:36:53;;;;;;;10.27;3.65;;;;;;;;;;5058491;28;20021;-69
2023/06/05 03:39:19;;;;;;;5.50;3.40;;;;;;;;;;5058082;28;20055;-68
2023/06/05 03:41:45;;;;;;;6.47;3.45;;;;;;;;;;5058296;28;20036;-69
2023/06/05 03:44:12;;;;;;;5.38;3.60;;;;;;;;;;5057995;28;20013;-68
2023/06/05 03:46:38;;;;;;;7.55;3.33;;;;;;;;;;5057986;28;20439;-68
2023/06/05 03:49:08;;;;;;;8.45;3.53;;;;;;;;;;5058030;28;20025;-68
2023/06/05 03:51:35;;;;;;;3.65;2.55;;;;;;;;;;5054453;28;20035;-68
2023/06/05 03:54:03;;;;;;;5.53;3.40;;;;;;;;;;5054751;28;20040;-68
2023/06/05 03:56:34;;;;;;;6.45;3.17;;;;;;;;;;5053612;28;20512;-68
2023/06/05 03:59:08;;;;;;;5.53;2.95;;;;;;;;;;5054795;28;20029;-68
2023/06/05 04:01:38;;;;;;;8.45;3.38;;;;;;;;;;5054643;28;20555;-69
2023/06/05 04:04:05;;;;;;;10.32;3.20;;;;;;;;;;5054486;28;20033;-68
2023/06/05 04:06:36;;;;;;;4.70;3.50;;;;;;;;;;5054600;28;20025;-69
2023/06/05 04:09:08;;;;;;;;;;;;;;;;;;5054763;28;20025;-69
2023/06/05 04:11:35;;;;;;;5.28;3.72;;;;;;;;;;5054546;28;19911;-68
2023/06/05 04:14:01;;;;;;;4.55;3.13;;;;;;;;;;5054483;28;20036;-68
2023/06/05 04:16:29;;;;;;;4.30;3.30;;;;;;;;;;5054540;28;20036;-68
2023/06/05 04:18:55;;;;;;;4.38;3.30;;;;;;;;;;5054101;28;20021;-69
2023/06/05 04:21:22;;;;;;;4.07;3.60;;;;;;;;;;5054200;28;20031;-68
2023/06/05 04:23:48;;;;;;;11.07;3.17;;;;;;;;;;5054093;28;20051;-68
2023/06/05 04:26:17;;;;;;;7.68;3.30;;;;;;;;;;5054179;28;20035;-68
2023/06/05 04:28:43;;;;;;;5.45;3.22;;;;;;;;;;5054177;28;20497;-68
2023/06/05 04:31:10;;;;;;;3.92;3.10;;;;;;;;;;5054265;28;20028;-68
2023/06/05 04:33:36;;;;;;;5.18;3.25;;;;;;;;;;5053576;28;20033;-68
2023/06/05 04:36:04;;;;;;;6.05;3.35;;;;;;;;;;5054327;28;20043;-68
2023/06/05 04:38:31;;;;;;;6.75;3.88;;;;;;;;;;5053977;28;20029;-68
2023/06/05 04:40:57;;;;;;;5.53;3.30;;;;;;;;;;5054003;28;20023;-69
2023/06/05 04:43:23;;;;;;;6.68;3.63;;;;;;;;;;5053932;28;20469;-68
2023/06/05 04:45:50;;;;;;;3.85;2.95;;;;;;;;;;5053777;28;20028;-68
2023/06/05 04:48:16;;;;;;;4.35;3.00;;;;;;;;;;5053528;28;20485;-69
2023/06/05 04:50:42;;;;;;;5.60;3.28;;;;;;;;;;5053874;28;20021;-69
2023/06/05 04:53:09;;;;;;;4.47;3.60;;;;;;;;;;5053778;28;20021;-68
2023/06/05 04:55:35;;;;;;;3.70;3.03;;;;;;;;;;5053832;28;20037;-68
2023/06/05 04:58:02;;;;;;;3.55;3.15;;;;;;;;;;5053375;28;20023;-69
2023/06/05 05:00:28;;;;;;;6.07;3.80;;;;;;;;;;5053553;28;20051;-68
2023/06/05 05:02:55;;;;;;;7.30;3.38;;;;;;;;;;5053026;28;20019;-68
2023/06/05 05:05:22;;;;;;;6.65;2.95;;;;;;;;;;5053387;28;20355;-69
2023/06/05 05:07:48;;;;;;;4.88;4.30;;;;;;;;;;5053422;28;20969;-69
2023/06/05 05:10:14;;;;;;;6.82;3.58;;;;;;;;;;5053197;28;20523;-69
2023/06/05 05:12:41;;;;;;;6.88;3.63;;;;;;;;;;5053398;28;20507;-69
2023/06/05 05:15:08;;;;;;;8.77;3.20;;;;;;;;;;5053199;28;20473;-68
2023/06/05 05:17:34;;;;;;;4.00;3.00;;;;;;;;;;5053140;28;20017;-68
2023/06/05 05:20:03;;;;;;;3.03;2.78;;;;;;;;;;5053553;28;20025;-68
2023/06/05 05:22:29;;;;;;;5.75;3.10;;;;;;;;;;5053003;28;20017;-69
2023/06/05 05:24:56;;;;;;;5.72;3.20;;;;;;;;;;5052955;28;20416;-69
2023/06/05 05:27:24;;;;;;;7.78;3.22;;;;;;;;;;5052255;28;20089;-68
2023/06/05 05:29:50;;;;;;;4.53;3.30;;;;;;;;;;5052957;28;20411;-68
2023/06/05 05:32:17;;;;;;;5.15;3.00;;;;;;;;;;5052980;28;20025;-69
2023/06/05 05:34:43;;;;;;;3.70;3.25;;;;;;;;;;5052961;28;20029;-68
2023/06/05 05:37:10;;;;;;;8.68;2.90;;;;;;;;;;5052892;28;20039;-69
2023/06/05 05:39:36;;;;;;;5.15;3.47;;;;;;;;;;5052987;28;20013;-69
2023/06/05 05:42:03;;;;;;;4.28;3.10;;;;;;;;;;5052726;28;20023;-69
2023/06/05 05:44:29;;;;;;;8.13;2.78;;;;;;;;;;5052944;28;20029;-68
2023/06/05 05:46:55;;;;;;;6.82;3.15;;;;;;;;;;5052593;28;20027;-68
2023/06/05 05:49:22;;;;;;;5.57;3.47;;;;;;;;;;5052796;28;20474;-68
2023/06/05 05:51:48;;;;;;;4.03;2.88;;;;;;;;;;5052866;28;20035;-68
2023/06/05 05:54:14;;;;;;;4.30;2.67;;;;;;;;;;5052367;28;20408;-68
2023/06/05 05:56:42;;;;;;;8.02;2.90;;;;;;;;;;5052869;28;20021;-68
2023/06/05 05:59:08;;;;;;;5.03;3.00;;;;;;;;;;5052678;28;20046;-68
2023/06/05 06:01:34;;;;;;;3.13;2.83;;;;;;;;;;5052536;28;20029;-69
2023/06/05 06:04:02;;;;;;;5.85;3.10;;;;;;;;;;5052455;28;20393;-69
2023/06/05 06:06:28;;;;;;;5.45;2.90;;;;;;;;;;5052246;28;20024;-69
2023/06/05 06:08:55;;;;;;;5.43;2.80;;;;;;;;;;5052392;28;20043;-69
2023/06/05 06:11:21;;;;;;;6.72;3.20;;;;;;;;;;5052283;28;20033;-69
2023/06/05 06:13:48;;;;;;;4.03;2.83;;;;;;;;;;5051286;28;20037;-69
2023/06/05 06:16:15;;;;;;;6.88;3.25;;;;;;;;;;5052236;28;20027;-68
2023/06/05 06:18:41;;;;;;;4.55;3.10;;;;;;;;;;5051952;28;20055;-69
2023/06/05 06:21:08;;;;;;;6.35;3.42;;;;;;;;;;5051184;28;20036;-69
2023/06/05 06:23:34;;;;;;;7.93;3.15;;;;;;;;;;5047468;28;20043;-69
2023/06/05 06:26:06;;;;;;;3.90;3.22;;;;;;;;;;5065603;28;20027;-69
2023/06/05 06:28:32;;;;;;;5.13;3.15;;;;;;;;;;5051442;28;20025;-69
2023/06/05 06:30:59;;;;;;;7.40;3.10;;;;;;;;;;5051113;28;20035;-69
2023/06/05 06:33:29;;;;;;;5.13;3.25;;;;;;;;;;5049055;28;20013;-69
2023/06/05 06:35:58;;;;;;;7.32;3.83;;;;;;;;;;5050335;28;20031;-70
2023/06/05 06:38:30;;;;;;;6.10;3.33;;;;;;;;;;5051689;28;20393;-68
2023/06/05 06:40:59;;;;;;;4.88;2.75;;;;;;;;;;5038813;28;20033;-69
2023/06/05 06:43:25;;;;;;;3.60;2.95;;;;;;;;;;5050856;28;20025;-71
2023/06/05 06:45:53;;;;;;;3.55;2.90;;;;;;;;;;5040113;28;20027;-69
2023/06/05 06:48:20;;;;;;;3.30;2.95;;;;;;;;;;5052037;28;20017;-69
2023/06/05 06:50:46;;;;;;;3.20;2.90;;;;;;;;;;5051805;28;20029;-69
2023/06/05 06:53:13;;;;;;;5.63;2.63;;;;;;;;;;5051197;28;20033;-69
2023/06/05 06:55:39;;;;;;;3.92;3.10;;;;;;;;;;5050967;28;20516;-69
2023/06/05 06:58:06;;;;;;;4.40;2.88;;;;;;;;;;5051252;28;20021;-68
2023/06/05 07:00:32;;;;;;;3.30;2.28;;;;;;;;;;5052654;28;20033;-68
2023/06/05 07:02:58;;;;;;;4.50;2.50;;;;;;;;;;5052920;28;20021;-69
2023/06/05 07:05:25;;;;;;;3.75;2.50;;;;;;;;;;5051676;28;20043;-69
2023/06/05 07:07:51;;;;;;;4.68;2.50;;;;;;;;;;5049838;28;20025;-68
2023/06/05 07:10:17;;;;;;;3.58;2.33;;;;;;;;;;5051387;28;20496;-69
2023/06/05 07:12:44;;;;;;;5.78;2.28;;;;;;;;;;5050886;28;20478;-69
2023/06/05 07:15:10;;;;;;;7.18;2.45;;;;;;;;;;5051188;28;20041;-69
2023/06/05 07:17:36;;;;;;;6.60;2.65;;;;;;;;;;5050608;28;20032;-69
2023/06/05 07:20:05;;;;;;;2.92;2.50;;;;;;;;;;5049307;28;20397;-69
2023/06/05 07:22:31;;;;;;;4.20;2.15;;;;;;;;;;5049692;28;20023;-69
2023/06/05 07:24:58;;;;;;;3.35;2.40;;;;;;;;;;5049559;28;20069;-69
2023/06/05 07:27:24;;;;;;;3.63;2.08;;;;;;;;;;5053033;28;20029;-69
2023/06/05 07:29:53;;;;;;;3.83;2.00;;;;;;;;;;5051978;28;20058;-69
2023/06/05 07:32:20;;;;;;;2.83;1.92;;;;;;;;;;5052653;28;20032;-69
2023/06/05 07:34:47;;;;;;;3.30;2.00;;;;;;;;;;5048724;28;20055;-70
2023/06/05 07:37:13;;;;;;;5.07;2.42;;;;;;;;;;5043506;28;20029;-70
2023/06/05 07:39:40;;;;;;;4.28;2.05;;;;;;;;;;5035208;28;20021;-69
2023/06/05 07:42:06;;;;;;;4.22;2.13;;;;;;;;;;5034577;28;20020;-69
2023/06/05 07:44:32;;;;;;;3.75;2.33;;;;;;;;;;5035964;28;20048;-69
2023/06/05 07:46:59;;;;;;;3.72;2.20;;;;;;;;;;5034623;28;20028;-69
2023/06/05 07:49:25;;;;;;;2.60;2.35;;;;;;;;;;5033720;28;20379;-69
2023/06/05 07:51:51;;;;;;;3.72;2.05;;;;;;;;;;5049412;28;20035;-70
2023/06/05 07:54:19;;;;;;;3.65;2.00;;;;;;;;;;5053248;28;20481;-70
2023/06/05 07:56:48;;;;;;;4.63;2.17;;;;;;;;;;5052795;28;20504;-69
2023/06/05 07:59:16;;;;;;;3.45;2.10;;;;;;;;;;5053291;28;20021;-70
2023/06/05 08:01:42;;;;;;;2.30;1.80;;;;;;;;;;5053361;28;20029;-70
2023/06/05 08:04:13;;;;;;;2.20;2.00;;;;;;;;;;5051870;28;20039;-70
2023/06/05 08:06:39;;;;;;;4.60;2.05;;;;;;;;;;5051916;28;20028;-70
2023/06/05 08:09:09;;;;;;;2.55;2.15;;;;;;;;;;5043591;28;20009;-70
2023/06/05 08:11:38;;;;;;;2.80;2.40;;;;;;;;;;5050956;28;20025;-70
2023/06/05 08:14:08;;;;;;;2.10;1.90;;;;;;;;;;5054266;28;20027;-70
2023/06/05 08:16:35;;;;;;;3.40;2.20;;;;;;;;;;5052840;28;20035;-70
2023/06/05 08:19:01;;;;;;;2.53;2.25;;;;;;;;;;5052806;28;20401;-70
2023/06/05 08:21:28;;;;;;;2.20;2.00;;;;;;;;;;5052012;28;20033;-70
2023/06/05 08:23:55;;;;;;;3.25;2.20;;;;;;;;;;5052768;28;20057;-70
2023/06/05 08:26:22;;;;;;;3.63;2.20;;;;;;;;;;5052515;28;20032;-70
2023/06/05 08:28:50;;;;;;;3.47;2.28;;;;;;;;;;5048974;28;20532;-69
2023/06/05 08:31:16;;;;;;;4.00;2.30;;;;;;;;;;5052390;28;20135;-72
2023/06/05 08:33:43;;;;;;;2.55;2.33;;;;;;;;;;5046867;28;20029;-70
2023/06/05 08:36:09;;;;;;;3.20;2.15;;;;;;;;;;5034073;28;20391;-70
2023/06/05 08:38:36;;;;;;;2.40;2.00;;;;;;;;;;5035753;28;20013;-71
2023/06/05 08:41:05;;;;;;;2.25;1.85;;;;;;;;;;5053152;28;20025;-70
2023/06/05 08:43:32;;;;;;;3.00;2.10;;;;;;;;;;5055924;28;20021;-71
2023/06/05 08:45:58;;;;;;;2.90;2.17;;;;;;;;;;5052575;28;20055;-71
2023/06/05 08:48:25;;;;;;;3.35;2.10;;;;;;;;;;5052409;28;20400;-71
2023/06/05 08:50:54;;;;;;;2.53;1.90;;;;;;;;;;5052230;28;20033;-70
2023/06/05 08:53:21;;;;;;;2.33;2.13;;;;;;;;;;5052188;28;20473;-71
2023/06/05 08:55:48;;;;;;;6.80;2.00;;;;;;;;;;5052825;28;20033;-71
2023/06/05 08:58:14;;;;;;;2.70;1.88;;;;;;;;;;5052511;28;20029;-71
2023/06/05 09:00:41;;;;;;;2.38;2.10;;;;;;;;;;5049160;28;20030;-71
2023/06/05 09:03:07;;;;;;;2.55;2.10;;;;;;;;;;5049868;28;20021;-71
2023/06/05 09:05:33;;;;;;;2.33;2.00;;;;;;;;;;5050920;28;20035;-71
2023/06/05 09:08:00;;;;;;;3.10;1.98;;;;;;;;;;5050731;28;20024;-71
2023/06/05 09:10:27;;;;;;;1.98;1.80;;;;;;;;;;5051860;28;20016;-70
2023/06/05 09:12:57;;;;;;;2.55;1.80;;;;;;;;;;5051269;28;20025;-70
2023/06/05 09:15:25;;;;;;;1.83;1.60;;;;;;;;;;5051360;28;20110;-70
2023/06/05 09:18:11;;;;;;;4.00;1.88;;;;;;;;;;5051732;28;20033;-70
2023/06/05 09:20:38;;;;;;;2.72;1.98;;;;;;;;;;5051508;28;20029;-70
2023/06/05 09:23:22;;;;;;;4.25;2.03;;;;;;;;;;5050921;28;20033;-71
2023/06/05 09:25:49;;;;;;;2.17;1.80;;;;;;;;;;5051475;28;20039;-71
2023/06/05 09:28:15;;;;;;;2.15;1.95;;;;;;;;;;5052316;28;20431;-71
2023/06/05 09:30:56;;;;;;;2.30;2.00;;;;;;;;;;5051960;28;20025;-70
2023/06/05 09:33:23;;;;;;;2.28;1.75;;;;;;;;;;5032822;28;20482;-71
2023/06/05 09:36:02;;;;;;;1.90;1.80;;;;;;;;;;5038991;28;20405;-71
2023/06/05 09:38:28;;;;;;;3.15;1.85;;;;;;;;;;5051185;28;20477;-71
2023/06/05 09:41:04;;;;;;;2.67;1.90;;;;;;;;;;5051094;28;20408;-70
2023/06/05 09:43:30;;;;;;;1.92;1.70;;;;;;;;;;5051264;28;20025;-71
2023/06/05 09:45:56;;;;;;;2.97;1.88;;;;;;;;;;5051160;28;20082;-70
2023/06/05 09:48:25;;;;;;;2.03;1.77;;;;;;;;;;5050285;28;20025;-71
2023/06/05 09:50:52;;;;;;;3.47;1.63;;;;;;;;;;5051309;28;20765;-71
2023/06/05 09:53:21;;;;;;;3.30;1.90;;;;;;;;;;5050540;28;20612;-71
2023/06/05 09:55:48;;;;;;;3.08;1.85;;;;;;;;;;5050990;28;20380;-71
2023/06/05 09:58:15;;;;;;;2.75;2.00;;;;;;;;;;5050903;28;20028;-71
2023/06/05 10:00:42;;;;;;;2.33;1.73;;;;;;;;;;5051252;28;20028;-71
2023/06/05 10:03:10;;;;;;;2.88;2.08;;;;;;;;;;5049787;28;20037;-70
2023/06/05 10:05:38;;;;;;;2.22;2.03;;;;;;;;;;5051243;28;20071;-71
2023/06/05 10:08:06;;;;;;;4.82;2.10;;;;;;;;;;5050773;28;20028;-71
2023/06/05 10:10:33;;;;;;;3.85;1.88;;;;;;;;;;5049846;28;20396;-70
2023/06/05 10:13:01;;;;;;;3.80;1.77;;;;;;;;;;5050985;28;20519;-71
2023/06/05 10:15:28;;;;;;;4.18;2.22;;;;;;;;;;5051103;28;20043;-71
2023/06/05 10:17:54;;;;;;;2.30;2.10;;;;;;;;;;5051040;28;20021;-71
2023/06/05 10:20:22;;;;;;;3.28;2.67;;;;;;;;;;5050940;28;20039;-71
2023/06/05 10:22:50;;;;;;;2.70;2.20;;;;;;;;;;5050490;28;20497;-71
2023/06/05 10:25:19;;;;;;;2.90;2.40;;;;;;;;;;5050746;28;20033;-70
2023/06/05 10:28:01;;;;;;;3.78;2.45;;;;;;;;;;5050742;28;20481;-71
2023/06/05 10:30:46;;;;;;;2.33;2.03;;;;;;;;;;5050628;28;20520;-71
2023/06/05 10:33:32;;;;;;;3.42;2.50;;;;;;;;;;5050973;28;20025;-70
2023/06/05 10:36:00;;;;;;;2.40;2.20;;;;;;;;;;5050669;28;20025;-70
2023/06/05 10:38:27;;;;;;;5.63;2.28;;;;;;;;;;5051052;28;20039;-71
2023/06/05 10:40:54;;;;;;;3.13;2.78;;;;;;;;;;5050976;28;20091;-71
2023/06/05 10:43:39;;;;;;;2.63;2.40;;;;;;;;;;5049535;28;20033;-70
2023/06/05 10:46:29;;;;;;;2.60;2.40;;;;;;;;;;5050933;28;20032;-71
2023/06/05 10:49:20;;;;;;;3.65;2.00;;;;;;;;;;5045347;28;20025;-71
2023/06/05 10:51:46;;;;;;;2.40;2.20;;;;;;;;;;5050517;28;20029;-70
2023/06/05 10:54:17;;;;;;;2.60;2.40;;;;;;;;;;5050481;28;20029;-71
2023/06/05 10:56:53;;;;;;;3.30;2.33;;;;;;;;;;5050643;28;20401;-70
2023/06/05 10:59:20;;;;;;;3.80;2.40;;;;;;;;;;5050714;28;20024;-70
2023/06/05 11:04:46;;;;;;;4.93;2.40;;;;;;;;;;5054200;28;20032;-70
2023/06/05 11:07:29;;;;;;;7.32;2.35;;;;;;;;;;5054582;28;20028;-70
2023/06/05 11:10:05;;;;;;;5.78;2.45;;;;;;;;;;5054627;28;20031;-70
2023/06/05 11:12:40;;;;;;;7.05;2.50;;;;;;;;;;5054350;28;20485;-70
2023/06/05 11:15:27;;;;;;;2.75;2.50;;;;;;;;;;5054331;28;20052;-70
2023/06/05 11:17:53;;;;;;;2.90;2.10;;;;;;;;;;5053593;28;20031;-70
2023/06/05 11:20:22;;;;;;;2.20;2.00;;;;;;;;;;5054131;28;20055;-70
2023/06/05 11:23:09;;;;;;;2.45;2.10;;;;;;;;;;5053804;28;20021;-70
2023/06/05 11:25:36;;;;;;;5.45;2.50;;;;;;;;;;5054166;28;20101;-70
2023/06/05 11:28:11;;;;;;;3.58;2.40;;;;;;;;;;5052617;28;20043;-70
2023/06/05 11:30:45;;;;;;;6.35;2.55;;;;;;;;;;5034253;28;20028;-70
2023/06/05 11:33:12;;;;;;;2.35;2.05;;;;;;;;;;5033559;28;20025;-70
2023/06/05 11:35:39;;;;;;;3.28;2.70;;;;;;;;;;5039104;28;20055;-70
2023/06/05 11:38:08;;;;;;;4.00;2.70;;;;;;;;;;5051855;28;20025;-70
2023/06/05 11:40:35;;;;;;;3.97;2.75;;;;;;;;;;5053300;28;20025;-70
2023/06/05 11:43:05;;;;;;;5.13;2.70;;;;;;;;;;5051801;28;20032;-70
2023/06/05 11:45:36;;;;;;;2.20;2.00;;;;;;;;;;5053024;28;20392;-70
2023/06/05 11:48:09;;;;;;;5.78;2.50;;;;;;;;;;5053544;28;20036;-71
2023/06/05 11:50:36;;;;;;;3.72;2.50;;;;;;;;;;5053916;28;20025;-71
2023/06/05 11:53:05;;;;;;;2.80;2.33;;;;;;;;;;5053486;28;20392;-71
2023/06/05 11:58:27;;;;;;;2.40;2.20;;;;;;;;;;5053462;28;20055;-69
2023/06/05 12:01:04;;;;;;;2.42;2.22;;;;;;;;;;5052402;28;20028;-69
2023/06/05 12:03:32;;;;;;;5.65;2.13;;;;;;;;;;5053377;28;20033;-69
2023/06/05 12:05:58;;;;;;;2.75;2.13;;;;;;;;;;5053664;28;20033;-69
2023/06/05 12:08:25;;;;;;;2.25;2.05;;;;;;;;;;5053164;28;20059;-71
2023/06/05 12:10:52;;;;;;;3.55;2.22;;;;;;;;;;5052747;28;20036;-69
2023/06/05 12:13:19;;;;;;;2.78;2.13;;;;;;;;;;5052777;28;20021;-70
2023/06/05 12:15:57;;;;;;;2.33;2.10;;;;;;;;;;5051881;28;20045;-71
2023/06/05 12:18:31;;;;;;;3.45;2.00;;;;;;;;;;5049025;28;20381;-70
2023/06/05 12:20:57;;;;;;;3.33;2.17;;;;;;;;;;5052279;28;20029;-70
2023/06/05 12:23:24;;;;;;;2.88;2.25;;;;;;;;;;5052789;28;20047;-70
2023/06/05 12:26:03;;;;;;;2.20;1.95;;;;;;;;;;5052748;28;20357;-70
2023/06/05 12:28:30;;;;;;;2.63;2.10;;;;;;;;;;5053097;28;20389;-70
2023/06/05 12:30:57;;;;;;;4.38;2.65;;;;;;;;;;5052658;28;20439;-70
2023/06/05 12:33:24;;;;;;;2.60;2.30;;;;;;;;;;5052711;28;20025;-70
2023/06/05 12:36:10;;;;;;;2.50;2.10;;;;;;;;;;5053094;28;20029;-70
2023/06/05 12:38:41;;;;;;;2.58;2.10;;;;;;;;;;5052819;28;20471;-70
2023/06/05 12:41:10;;;;;;;6.10;2.13;;;;;;;;;;5053355;28;20033;-70
2023/06/05 12:43:37;;;;;;;4.05;2.30;;;;;;;;;;5052651;28;20021;-70
2023/06/05 12:46:03;;;;;;;5.18;2.78;;;;;;;;;;5052743;28;20021;-70
2023/06/05 12:48:30;;;;;;;6.07;3.10;;;;;;;;;;5052376;28;20033;-70
2023/06/05 12:50:56;;;;;;;15.57;5.07;;;;;;;;;;5051990;28;20495;-70
2023/06/05 12:53:22;;;;;;;12.05;4.72;;;;;;;;;;5051598;28;20085;-70
2023/06/05 12:55:49;;;;;;;96.53;17.98;;;;;;;;;;5051900;28;20489;-70
2023/06/05 12:58:15;;;;;;;22.52;7.90;;;;;;;;;;5047726;28;20025;-70
2023/06/05 13:00:44;;;;;;;243.85;13.35;;;;;;;;;;5047313;28;20543;-68
2023/06/05 13:03:10;;;;;;;71.45;5.57;;;;;;;;;;5046987;28;20036;-72
2023/06/05 13:05:39;;;;;;;1.17;1.00;;;;;;;;;;5050261;28;20029;-72
2023/06/05 13:08:06;;;;;;;1.02;0.82;;;;;;;;;;5048945;28;20027;-71
2023/06/05 13:10:32;;;;;;;0.73;0.73;;;;;;;;;;5046668;28;20032;-71
2023/06/05 13:12:58;;;;;;;2.05;1.20;;;;;;;;;;5050770;28;20023;-70
2023/06/05 13:15:25;;;;;;;1.38;0.93;;;;;;;;;;5051694;28;20036;-71
2023/06/05 13:17:51;;;;;;;1.55;1.10;;;;;;;;;;5051787;28;20370;-68
2023/06/05 13:20:17;;;;;;;0.90;0.90;;;;;;;;;;5049876;28;20043;-70
2023/06/05 13:22:44;;;;;;;1.90;1.08;;;;;;;;;;5052544;28;20031;-70
2023/06/05 13:25:10;;;;;;;1.45;1.08;;;;;;;;;;5051398;28;20037;-71
2023/06/05 13:27:37;;;;;;;1.58;0.90;;;;;;;;;;5052127;28;20029;-71
2023/06/05 13:30:03;;;;;;;0.52;0.47;;;;;;;;;;5048251;28;20035;-71
2023/06/05 13:32:31;;;;;;;4.28;2.50;;;;;;;;;;5047474;28;20082;-71
2023/06/05 13:34:57;;;;;;;5.75;3.88;;;;;;;;;;5050677;28;20436;-71
2023/06/05 13:37:24;;;;;;;5.75;3.22;;;;;;;;;;5052042;28;20025;-70
2023/06/05 13:39:50;;;;;;;4.85;3.47;;;;;;;;;;5051966;28;20024;-70
2023/06/05 13:42:18;;;;;;;7.53;4.80;;;;;;;;;;5051129;28;20504;-70
2023/06/05 13:44:44;;;;;;;8.30;4.05;;;;;;;;;;5050634;28;20039;-70
2023/06/05 13:47:11;;;;;;;6.75;3.92;;;;;;;;;;5050898;28;20037;-70
2023/06/05 13:49:37;;;;;;;13.75;4.32;;;;;;;;;;5050534;28;20021;-70
2023/06/05 13:52:03;;;;;;;3.72;3.17;;;;;;;;;;5055857;28;20040;-70
2023/06/05 13:54:30;;;;;;;8.23;4.15;;;;;;;;;;5053057;28;20051;-70
2023/06/05 13:56:56;;;;;;;6.53;4.28;;;;;;;;;;5051281;28;20074;-70
2023/06/05 13:59:22;;;;;;;12.88;5.40;;;;;;;;;;5051252;28;20029;-70
2023/06/05 14:01:49;;;;;;;8.15;4.88;;;;;;;;;;5050977;28;20029;-70
2023/06/05 14:04:15;;;;;;;6.72;4.60;;;;;;;;;;5050827;28;20023;-69
2023/06/05 14:06:42;;;;;;;8.40;4.90;;;;;;;;;;5050793;28;20509;-70
2023/06/05 14:09:08;;;;;;;10.70;5.40;;;;;;;;;;5049680;28;20025;-70
2023/06/05 14:11:36;;;;;;;8.02;4.60;;;;;;;;;;5050928;28;20027;-70
2023/06/05 14:14:02;;;;;;;11.32;5.13;;;;;;;;;;5050719;28;20489;-70
2023/06/05 14:16:29;;;;;;;7.82;5.18;;;;;;;;;;5050961;28;20562;-70
2023/06/05 14:18:55;;;;;;;7.30;4.90;;;;;;;;;;5050392;28;20085;-68
2023/06/05 14:21:21;;;;;;;10.88;3.97;;;;;;;;;;5051287;28;20040;-66
2023/06/05 14:23:48;;;;;;;4.93;3.95;;;;;;;;;;5050463;28;20045;-65
2023/06/05 14:26:14;;;;;;;7.40;3.80;;;;;;;;;;5050065;28;20035;-66
2023/06/05 14:28:40;;;;;;;7.40;4.35;;;;;;;;;;5050579;28;20024;-66
2023/06/05 14:31:07;;;;;;;8.82;3.92;;;;;;;;;;5050619;28;20037;-66
2023/06/05 14:33:33;;;;;;;5.90;4.00;;;;;;;;;;5049913;28;20074;-66
2023/06/05 14:35:59;;;;;;;4.68;3.70;;;;;;;;;;5049586;28;20036;-67
2023/06/05 14:38:26;;;;;;;8.82;4.50;;;;;;;;;;5050218;28;20025;-66
2023/06/05 14:40:52;;;;;;;5.93;4.60;;;;;;;;;;5050353;28;20024;-66
2023/06/05 14:43:19;;;;;;;10.43;5.13;;;;;;;;;;5049867;28;20017;-66
2023/06/05 14:45:45;;;;;;;6.90;4.78;;;;;;;;;;5050475;28;20039;-66
2023/06/05 14:48:12;;;;;;;10.18;4.70;;;;;;;;;;5049741;28;20025;-66
2023/06/05 14:50:38;;;;;;;8.93;4.30;;;;;;;;;;5050535;28;20025;-66
2023/06/05 14:53:05;;;;;;;6.60;4.90;;;;;;;;;;5049957;28;20086;-66